createdAt,value
2022-12-04T00:00:18.112Z,13.50
2022-12-04T00:01:18.155Z,13.90
2022-12-04T00:02:18.065Z,14.00
2022-12-04T00:03:18.138Z,12.90
2022-12-04T00:04:18.160Z,13.60
2022-12-04T00:05:18.054Z,13.70
2022-12-04T00:06:18.020Z,13.50
2022-12-04T00:07:18.068Z,13.40
2022-12-04T00:08:18.042Z,14.00
2022-12-04T00:09:18.006Z,13.80
2022-12-04T00:10:18.002Z,13.20
2022-12-04T00:11:17.976Z,14.10
2022-12-04T00:12:17.975Z,14.30
2022-12-04T00:13:17.974Z,13.60
2022-12-04T00:14:17.922Z,13.60
2022-12-04T00:15:26.466Z,14.00
2022-12-04T00:16:17.978Z,13.50
2022-12-04T00:17:17.902Z,14.50
2022-12-04T00:18:17.896Z,14.60
2022-12-04T00:19:17.885Z,13.20
2022-12-04T00:20:17.839Z,13.20
2022-12-04T00:21:17.854Z,14.20
2022-12-04T00:22:17.807Z,12.70
2022-12-04T00:23:17.868Z,13.50
2022-12-04T00:24:17.791Z,13.40
2022-12-04T00:25:17.805Z,14.00
2022-12-04T00:26:17.777Z,14.20
2022-12-04T00:27:17.787Z,14.90
2022-12-04T00:28:17.758Z,14.70
2022-12-04T00:29:17.804Z,14.00
2022-12-04T00:30:17.722Z,13.70
2022-12-04T00:31:17.760Z,14.20
2022-12-04T00:32:17.712Z,14.20
2022-12-04T00:33:17.706Z,15.00
2022-12-04T00:34:17.698Z,14.50
2022-12-04T00:35:17.677Z,14.50
2022-12-04T00:36:17.631Z,14.00
2022-12-04T00:37:17.641Z,14.00
2022-12-04T00:38:17.634Z,14.10
2022-12-04T00:39:17.613Z,14.70
2022-12-04T00:40:17.617Z,14.20
2022-12-04T00:41:17.606Z,14.40
2022-12-04T00:42:17.564Z,14.40
2022-12-04T00:43:17.566Z,14.00
2022-12-04T00:44:17.547Z,15.10
2022-12-04T00:45:17.579Z,14.80
2022-12-04T00:46:17.648Z,14.30
2022-12-04T00:47:17.528Z,14.10
2022-12-04T00:48:17.477Z,13.40
2022-12-04T00:49:17.488Z,14.70
2022-12-04T00:50:17.488Z,14.50
2022-12-04T00:51:17.494Z,14.50
2022-12-04T00:52:17.423Z,14.40
2022-12-04T00:53:17.458Z,14.40
2022-12-04T00:54:17.399Z,14.30
2022-12-04T00:55:17.417Z,13.40
2022-12-04T00:56:18.709Z,13.60
2022-12-04T00:57:17.386Z,14.00
2022-12-04T00:58:17.364Z,14.50
2022-12-04T00:59:17.372Z,14.80
2022-12-04T01:00:17.333Z,13.80
2022-12-04T01:01:17.478Z,14.60
2022-12-04T01:02:17.322Z,14.10
2022-12-04T01:03:17.391Z,13.80
2022-12-04T01:04:17.280Z,14.40
2022-12-04T01:05:17.282Z,14.50
2022-12-04T01:06:17.259Z,14.60
2022-12-04T01:07:17.314Z,13.40
2022-12-04T01:08:17.319Z,14.30
2022-12-04T01:09:17.237Z,14.20
2022-12-04T01:10:17.208Z,15.00
2022-12-04T01:11:17.208Z,14.00
2022-12-04T01:12:20.725Z,13.90
2022-12-04T01:13:17.233Z,14.80
2022-12-04T01:14:17.156Z,14.50
2022-12-04T01:15:17.155Z,14.30
2022-12-04T01:16:17.212Z,14.70
2022-12-04T01:17:17.145Z,15.30
2022-12-04T01:18:17.140Z,14.50
2022-12-04T01:19:17.111Z,15.20
2022-12-04T01:20:17.115Z,14.70
2022-12-04T01:21:17.082Z,14.60
2022-12-04T01:22:17.052Z,14.50
2022-12-04T01:23:17.064Z,16.00
2022-12-04T01:24:17.053Z,15.60
2022-12-04T01:25:17.036Z,14.30
2022-12-04T01:26:17.001Z,14.90
2022-12-04T01:27:17.003Z,15.50
2022-12-04T01:28:16.970Z,14.20
2022-12-04T01:29:17.022Z,14.50
2022-12-04T01:30:16.950Z,14.60
2022-12-04T01:31:17.055Z,15.90
2022-12-04T01:32:16.986Z,15.00
2022-12-04T01:33:16.927Z,15.40
2022-12-04T01:34:16.909Z,13.90
2022-12-04T01:35:16.956Z,14.90
2022-12-04T01:36:16.889Z,15.10
2022-12-04T01:37:16.876Z,15.10
2022-12-04T01:38:16.855Z,14.50
2022-12-04T01:39:16.868Z,15.00
2022-12-04T01:40:16.865Z,14.80
2022-12-04T01:41:16.831Z,14.30
2022-12-04T01:42:16.800Z,14.80
2022-12-04T01:43:16.820Z,14.80
2022-12-04T01:44:16.772Z,14.30
2022-12-04T01:45:16.788Z,14.60
2022-12-04T01:46:16.871Z,14.10
2022-12-04T01:47:16.758Z,14.50
2022-12-04T01:48:16.722Z,14.70
2022-12-04T01:49:16.724Z,15.50
2022-12-04T01:50:16.689Z,13.90
2022-12-04T01:51:16.746Z,14.50
2022-12-04T01:52:16.690Z,14.50
2022-12-04T01:53:16.677Z,13.80
2022-12-04T01:54:16.639Z,15.10
2022-12-04T01:55:16.662Z,13.90
2022-12-04T01:56:16.608Z,14.50
2022-12-04T01:57:16.656Z,13.80
2022-12-04T01:58:16.595Z,13.90
2022-12-04T01:59:16.604Z,14.60
2022-12-04T02:00:16.569Z,13.80
2022-12-04T02:01:16.681Z,14.70
2022-12-04T02:02:16.669Z,14.20
2022-12-04T02:03:16.609Z,14.80
2022-12-04T02:04:16.520Z,14.70
2022-12-04T02:05:16.526Z,14.80
2022-12-04T02:06:16.488Z,14.30
2022-12-04T02:07:16.507Z,14.70
2022-12-04T02:08:16.591Z,14.70
2022-12-04T02:10:33.076Z,15.10
2022-12-04T02:11:34.089Z,15.00
2022-12-04T02:12:34.080Z,13.70
2022-12-04T02:13:34.068Z,14.00
2022-12-04T02:14:34.021Z,13.90
2022-12-04T02:15:34.041Z,14.30
2022-12-04T02:16:34.048Z,14.70
2022-12-04T02:17:34.009Z,15.30
2022-12-04T02:18:34.000Z,14.90
2022-12-04T02:19:33.988Z,14.00
2022-12-04T02:20:33.947Z,12.90
2022-12-04T02:21:33.959Z,13.60
2022-12-04T02:22:33.926Z,13.60
2022-12-04T02:23:33.959Z,14.20
2022-12-04T02:24:33.923Z,14.90
2022-12-04T02:25:33.902Z,13.40
2022-12-04T02:26:33.867Z,14.10
2022-12-04T02:27:33.883Z,13.90
2022-12-04T02:28:33.845Z,13.90
2022-12-04T02:29:33.898Z,14.90
2022-12-04T02:30:33.847Z,13.80
2022-12-04T02:31:33.826Z,13.30
2022-12-04T02:32:33.796Z,13.30
2022-12-04T02:33:33.810Z,13.00
2022-12-04T02:34:33.796Z,13.00
2022-12-04T02:35:33.778Z,13.70
2022-12-04T02:36:33.737Z,13.60
2022-12-04T02:37:33.754Z,13.80
2022-12-04T02:38:33.720Z,14.80
2022-12-04T02:39:33.734Z,14.30
2022-12-04T02:40:33.716Z,12.80
2022-12-04T02:41:33.700Z,13.00
2022-12-04T02:42:33.672Z,13.60
2022-12-04T02:43:33.680Z,13.40
2022-12-04T02:44:33.640Z,13.40
2022-12-04T02:45:33.729Z,13.10
2022-12-04T02:46:33.614Z,13.10
2022-12-04T02:47:33.621Z,13.50
2022-12-04T02:48:33.581Z,13.50
2022-12-04T02:49:33.591Z,13.20
2022-12-04T02:50:33.565Z,13.80
2022-12-04T02:51:33.600Z,13.80
2022-12-04T02:52:33.537Z,13.50
2022-12-04T02:53:33.569Z,13.20
2022-12-04T02:54:33.511Z,13.30
2022-12-04T02:55:33.522Z,12.30
2022-12-04T02:56:33.511Z,13.00
2022-12-04T02:57:33.489Z,13.20
2022-12-04T02:58:33.456Z,12.60
2022-12-04T02:59:33.466Z,13.00
2022-12-04T03:00:33.431Z,13.10
2022-12-04T03:01:33.593Z,12.60
2022-12-04T03:02:33.536Z,13.30
2022-12-04T03:03:33.426Z,12.30
2022-12-04T03:04:33.373Z,12.80
2022-12-04T03:05:33.384Z,13.00
2022-12-04T03:06:33.368Z,12.70
2022-12-04T03:07:33.464Z,13.30
2022-12-04T03:08:33.318Z,13.20
2022-12-04T03:09:33.333Z,12.90
2022-12-04T03:10:33.312Z,12.30
2022-12-04T03:11:33.308Z,12.70
2022-12-04T03:12:33.271Z,12.20
2022-12-04T03:13:33.304Z,12.70
2022-12-04T03:14:33.246Z,11.80
2022-12-04T03:15:33.256Z,11.90
2022-12-04T03:16:33.262Z,12.10
2022-12-04T03:17:33.248Z,12.30
2022-12-04T03:18:33.232Z,12.30
2022-12-04T03:19:33.203Z,12.60
2022-12-04T03:20:33.167Z,12.50
2022-12-04T03:21:33.173Z,11.50
2022-12-04T03:22:33.165Z,12.30
2022-12-04T03:23:33.148Z,11.40
2022-12-04T03:24:33.150Z,12.50
2022-12-04T03:25:33.122Z,11.90
2022-12-04T03:26:33.089Z,12.00
2022-12-04T03:27:33.102Z,12.00
2022-12-04T03:28:33.069Z,12.50
2022-12-04T03:29:33.107Z,12.40
2022-12-04T03:30:33.115Z,12.40
2022-12-04T03:31:33.046Z,11.70
2022-12-04T03:32:33.013Z,12.80
2022-12-04T03:33:33.033Z,12.20
2022-12-04T03:34:32.984Z,11.70
2022-12-04T03:35:33.024Z,11.20
2022-12-04T03:36:32.969Z,11.30
2022-12-04T03:37:32.967Z,12.00
2022-12-04T03:38:32.936Z,11.40
2022-12-04T03:39:32.958Z,10.70
2022-12-04T03:40:32.937Z,12.00
2022-12-04T03:41:32.921Z,11.90
2022-12-04T03:42:32.892Z,12.70
2022-12-04T03:43:32.885Z,11.30
2022-12-04T03:44:32.850Z,11.80
2022-12-04T03:45:32.883Z,11.80
2022-12-04T03:46:32.955Z,12.20
2022-12-04T03:47:32.843Z,11.50
2022-12-04T03:48:32.795Z,11.70
2022-12-04T03:49:32.821Z,11.90
2022-12-04T03:50:32.774Z,12.20
2022-12-04T03:51:32.819Z,12.30
2022-12-04T03:52:32.753Z,12.40
2022-12-04T03:53:32.759Z,12.70
2022-12-04T03:54:32.732Z,12.50
2022-12-04T03:55:32.752Z,11.90
2022-12-04T03:56:32.702Z,11.60
2022-12-04T03:57:32.735Z,12.30
2022-12-04T03:58:32.675Z,12.10
2022-12-04T03:59:32.718Z,12.10
2022-12-04T04:00:32.643Z,11.80
2022-12-04T04:01:32.718Z,12.00
2022-12-04T04:02:32.694Z,11.70
2022-12-04T04:03:32.628Z,12.40
2022-12-04T04:04:32.589Z,11.80
2022-12-04T04:05:32.626Z,13.10
2022-12-04T04:06:32.587Z,11.40
2022-12-04T04:07:35.606Z,11.90
2022-12-04T04:08:32.623Z,12.00
2022-12-04T04:09:32.567Z,12.50
2022-12-04T04:10:32.512Z,11.90
2022-12-04T04:11:32.532Z,12.50
2022-12-04T04:12:32.490Z,11.90
2022-12-04T04:13:32.725Z,12.40
2022-12-04T04:14:32.467Z,12.20
2022-12-04T04:15:32.633Z,12.80
2022-12-04T04:16:32.445Z,12.40
2022-12-04T04:17:38.154Z,13.20
2022-12-04T04:18:32.416Z,13.50
2022-12-04T04:19:32.448Z,12.40
2022-12-04T04:20:32.391Z,12.80
2022-12-04T04:21:32.399Z,13.10
2022-12-04T04:22:32.361Z,12.70
2022-12-04T04:23:32.374Z,13.00
2022-12-04T04:24:32.380Z,12.50
2022-12-04T04:25:32.352Z,12.90
2022-12-04T04:26:32.325Z,11.90
2022-12-04T04:27:32.319Z,12.40
2022-12-04T04:28:32.286Z,12.30
2022-12-04T04:29:32.296Z,12.60
2022-12-04T04:30:32.279Z,12.80
2022-12-04T04:31:32.351Z,12.40
2022-12-04T04:32:32.237Z,11.00
2022-12-04T04:33:32.248Z,12.50
2022-12-04T04:34:32.207Z,13.00
2022-12-04T04:35:32.249Z,12.00
2022-12-04T04:36:32.188Z,12.50
2022-12-04T04:37:32.196Z,11.60
2022-12-04T04:38:32.149Z,11.60
2022-12-04T04:39:32.176Z,11.70
2022-12-04T04:40:32.147Z,11.60
2022-12-04T04:41:32.188Z,12.80
2022-12-04T04:42:32.121Z,11.40
2022-12-04T04:43:32.109Z,11.30
2022-12-04T04:44:32.085Z,12.30
2022-12-04T04:45:32.093Z,12.40
2022-12-04T04:46:32.162Z,12.80
2022-12-04T04:47:32.066Z,12.20
2022-12-04T04:48:32.023Z,12.70
2022-12-04T04:49:32.041Z,12.60
2022-12-04T04:50:31.999Z,12.10
2022-12-04T04:51:32.027Z,13.00
2022-12-04T04:52:32.004Z,11.60
2022-12-04T04:53:31.986Z,12.60
2022-12-04T04:54:31.953Z,12.30
2022-12-04T04:55:31.940Z,12.50
2022-12-04T04:56:31.950Z,12.60
2022-12-04T04:57:31.948Z,11.70
2022-12-04T04:58:31.926Z,12.00
2022-12-04T04:59:31.884Z,12.30
2022-12-04T05:00:31.896Z,13.40
2022-12-04T05:01:31.902Z,12.10
2022-12-04T05:02:31.912Z,12.60
2022-12-04T05:03:31.860Z,13.10
2022-12-04T05:04:31.844Z,12.30
2022-12-04T05:05:31.827Z,13.40
2022-12-04T05:06:31.816Z,12.80
2022-12-04T05:07:31.870Z,13.00
2022-12-04T05:08:31.838Z,12.40
2022-12-04T05:09:34.588Z,13.20
2022-12-04T05:10:31.775Z,12.60
2022-12-04T05:11:31.749Z,13.60
2022-12-04T05:12:31.856Z,13.10
2022-12-04T05:13:31.707Z,12.80
2022-12-04T05:14:31.747Z,13.30
2022-12-04T05:15:31.674Z,12.30
2022-12-04T05:16:31.737Z,12.10
2022-12-04T05:17:31.658Z,12.30
2022-12-04T05:18:31.673Z,12.80
2022-12-04T05:19:31.657Z,13.10
2022-12-04T05:20:31.639Z,12.40
2022-12-04T05:21:31.601Z,13.10
2022-12-04T05:22:31.616Z,13.40
2022-12-04T05:23:31.573Z,13.40
2022-12-04T05:24:31.584Z,13.40
2022-12-04T05:25:31.581Z,13.10
2022-12-04T05:26:31.564Z,12.60
2022-12-04T05:27:31.517Z,13.20
2022-12-04T05:28:31.550Z,12.80
2022-12-04T05:29:35.705Z,12.20
2022-12-04T05:30:31.547Z,12.30
2022-12-04T05:31:31.553Z,12.10
2022-12-04T05:32:31.487Z,12.70
2022-12-04T05:33:31.443Z,12.60
2022-12-04T05:34:31.455Z,14.00
2022-12-04T05:35:31.435Z,12.40
2022-12-04T05:36:31.454Z,13.20
2022-12-04T05:37:31.400Z,12.90
2022-12-04T05:38:31.414Z,13.30
2022-12-04T05:39:31.369Z,13.80
2022-12-04T05:40:31.370Z,12.20
2022-12-04T05:41:31.384Z,12.90
2022-12-04T05:42:31.353Z,13.00
2022-12-04T05:43:31.319Z,13.10
2022-12-04T05:44:31.347Z,13.00
2022-12-04T05:45:31.285Z,12.90
2022-12-04T05:46:31.323Z,13.00
2022-12-04T05:47:31.298Z,13.40
2022-12-04T05:48:31.294Z,13.40
2022-12-04T05:49:31.235Z,13.00
2022-12-04T05:50:31.240Z,13.00
2022-12-04T05:51:31.227Z,12.60
2022-12-04T05:52:31.255Z,12.80
2022-12-04T05:53:31.197Z,13.50
2022-12-04T05:54:31.193Z,13.20
2022-12-04T05:55:31.167Z,12.50
2022-12-04T05:56:31.173Z,13.20
2022-12-04T05:57:31.222Z,13.60
2022-12-04T05:58:31.168Z,13.60
2022-12-04T05:59:31.109Z,14.20
2022-12-04T06:00:31.124Z,13.40
2022-12-04T06:01:31.084Z,13.10
2022-12-04T06:02:31.219Z,13.90
2022-12-04T06:03:31.176Z,13.60
2022-12-04T06:04:31.069Z,13.20
2022-12-04T06:05:31.035Z,13.00
2022-12-04T06:06:31.036Z,12.90
2022-12-04T06:07:31.041Z,13.20
2022-12-04T06:08:31.018Z,14.20
2022-12-04T06:09:31.003Z,14.70
2022-12-04T06:10:31.004Z,13.30
2022-12-04T06:11:30.955Z,14.00
2022-12-04T06:12:30.966Z,13.50
2022-12-04T06:13:30.923Z,13.50
2022-12-04T06:14:34.878Z,13.70
2022-12-04T06:15:30.907Z,14.00
2022-12-04T06:16:30.941Z,13.60
2022-12-04T06:17:30.914Z,12.70
2022-12-04T06:18:30.887Z,13.90
2022-12-04T06:19:30.849Z,13.60
2022-12-04T06:20:30.935Z,13.10
2022-12-04T06:21:30.828Z,14.10
2022-12-04T06:22:30.836Z,13.40
2022-12-04T06:23:30.829Z,13.20
2022-12-04T06:24:30.806Z,13.40
2022-12-04T06:25:30.807Z,13.50
2022-12-04T06:26:30.803Z,13.40
2022-12-04T06:27:30.749Z,13.50
2022-12-04T06:28:30.752Z,13.90
2022-12-04T06:29:30.724Z,13.70
2022-12-04T06:30:30.744Z,14.20
2022-12-04T06:31:30.799Z,13.50
2022-12-04T06:32:30.720Z,13.10
2022-12-04T06:33:30.685Z,12.80
2022-12-04T06:34:30.673Z,12.90
2022-12-04T06:35:30.643Z,13.60
2022-12-04T06:36:30.698Z,13.00
2022-12-04T06:37:30.637Z,14.00
2022-12-04T06:38:30.625Z,13.40
2022-12-04T06:39:30.602Z,14.20
2022-12-04T06:40:30.606Z,12.40
2022-12-04T06:41:30.565Z,12.50
2022-12-04T06:42:30.600Z,13.70
2022-12-04T06:43:30.559Z,13.30
2022-12-04T06:44:30.548Z,13.10
2022-12-04T06:45:30.577Z,12.50
2022-12-04T06:46:30.527Z,13.40
2022-12-04T06:47:30.469Z,12.90
2022-12-04T06:48:30.450Z,13.50
2022-12-04T06:49:30.443Z,13.10
2022-12-04T06:50:30.421Z,13.50
2022-12-04T06:51:30.376Z,13.80
2022-12-04T06:52:30.389Z,12.80
2022-12-04T06:53:30.405Z,13.00
2022-12-04T06:54:30.364Z,13.40
2022-12-04T06:55:30.329Z,12.50
2022-12-04T06:56:30.346Z,13.30
2022-12-04T06:57:30.416Z,13.40
2022-12-04T06:58:30.340Z,13.70
2022-12-04T06:59:30.280Z,12.70
2022-12-04T07:00:30.292Z,13.20
2022-12-04T07:01:30.353Z,13.10
2022-12-04T07:02:30.380Z,13.00
2022-12-04T07:03:30.225Z,12.70
2022-12-04T07:04:30.266Z,12.60
2022-12-04T07:05:30.203Z,12.70
2022-12-04T07:06:30.213Z,12.40
2022-12-04T07:07:30.267Z,12.50
2022-12-04T07:08:30.185Z,12.50
2022-12-04T07:09:30.197Z,12.60
2022-12-04T07:10:30.225Z,13.20
2022-12-04T07:11:30.128Z,12.60
2022-12-04T07:12:30.138Z,12.60
2022-12-04T07:13:30.127Z,12.40
2022-12-04T07:14:30.104Z,12.00
2022-12-04T07:15:30.104Z,13.30
2022-12-04T07:16:33.978Z,12.50
2022-12-04T07:17:30.086Z,13.50
2022-12-04T07:18:30.055Z,13.00
2022-12-04T07:19:30.032Z,13.30
2022-12-04T07:20:30.157Z,12.40
2022-12-04T07:21:29.992Z,12.60
2022-12-04T07:22:30.047Z,12.50
2022-12-04T07:23:29.976Z,12.90
2022-12-04T07:24:29.988Z,13.10
2022-12-04T07:25:29.945Z,12.40
2022-12-04T07:26:29.992Z,13.00
2022-12-04T07:27:29.937Z,12.60
2022-12-04T07:28:29.927Z,13.20
2022-12-04T07:29:29.886Z,13.00
2022-12-04T07:30:30.032Z,13.10
2022-12-04T07:31:30.051Z,13.20
2022-12-04T07:32:29.883Z,13.80
2022-12-04T07:33:29.836Z,13.20
2022-12-04T07:34:29.848Z,13.40
2022-12-04T07:35:29.812Z,14.20
2022-12-04T07:36:29.842Z,13.70
2022-12-04T07:37:29.810Z,13.60
2022-12-04T07:38:29.787Z,14.20
2022-12-04T07:39:29.776Z,12.50
2022-12-04T07:40:29.825Z,13.30
2022-12-04T07:41:29.728Z,14.00
2022-12-04T07:42:29.915Z,13.20
2022-12-04T07:43:29.714Z,13.60
2022-12-04T07:44:29.716Z,12.70
2022-12-04T07:45:29.742Z,14.10
2022-12-04T07:46:29.773Z,13.40
2022-12-04T07:47:29.660Z,14.90
2022-12-04T07:48:33.304Z,13.40
2022-12-04T07:49:29.625Z,13.20
2022-12-04T07:50:29.679Z,13.20
2022-12-04T07:51:29.624Z,13.40
2022-12-04T07:52:29.612Z,13.50
2022-12-04T07:53:29.619Z,15.40
2022-12-04T07:54:29.610Z,15.00
2022-12-04T07:55:29.550Z,14.70
2022-12-04T07:56:29.568Z,15.20
2022-12-04T07:57:29.638Z,14.20
2022-12-04T07:58:29.536Z,13.80
2022-12-04T07:59:29.531Z,13.10
2022-12-04T08:00:29.538Z,14.90
2022-12-04T08:01:29.618Z,13.30
2022-12-04T08:02:29.574Z,12.60
2022-12-04T08:03:29.459Z,13.60
2022-12-04T08:04:29.538Z,13.20
2022-12-04T08:05:29.460Z,14.40
2022-12-04T08:06:29.439Z,13.40
2022-12-04T08:07:29.552Z,13.80
2022-12-04T08:08:29.414Z,13.70
2022-12-04T08:09:29.381Z,13.50
2022-12-04T08:10:29.485Z,12.30
2022-12-04T08:11:29.337Z,12.60
2022-12-04T08:12:29.379Z,12.90
2022-12-04T08:13:29.324Z,12.30
2022-12-04T08:14:29.331Z,12.10
2022-12-04T08:15:29.328Z,12.50
2022-12-04T08:16:29.384Z,12.50
2022-12-04T08:17:29.381Z,12.90
2022-12-04T08:18:29.277Z,13.10
2022-12-04T08:19:29.243Z,12.20
2022-12-04T08:20:29.310Z,13.60
2022-12-04T08:21:29.237Z,12.50
2022-12-04T08:22:29.329Z,12.90
2022-12-04T08:23:29.191Z,14.60
2022-12-04T08:24:29.206Z,13.20
2022-12-04T08:25:29.172Z,12.60
2022-12-04T08:26:29.207Z,12.50
2022-12-04T08:27:29.135Z,13.20
2022-12-04T08:28:29.147Z,13.00
2022-12-04T08:29:29.113Z,13.70
2022-12-04T08:30:29.191Z,13.90
2022-12-04T08:31:29.258Z,13.70
2022-12-04T08:32:29.125Z,13.30
2022-12-04T08:33:29.069Z,12.30
2022-12-04T08:34:29.073Z,13.80
2022-12-04T08:35:29.033Z,13.50
2022-12-04T08:36:29.074Z,13.10
2022-12-04T08:37:29.048Z,12.20
2022-12-04T08:38:29.020Z,12.50
2022-12-04T08:39:28.993Z,12.60
2022-12-04T08:40:29.049Z,12.60
2022-12-04T08:41:28.954Z,12.90
2022-12-04T08:42:28.981Z,12.40
2022-12-04T08:43:28.974Z,12.80
2022-12-04T08:44:28.951Z,13.00
2022-12-04T08:45:28.904Z,13.50
2022-12-04T08:46:29.079Z,12.10
2022-12-04T08:47:28.901Z,13.40
2022-12-04T08:48:28.933Z,13.10
2022-12-04T08:49:28.854Z,13.80
2022-12-04T08:50:28.865Z,13.00
2022-12-04T08:51:28.842Z,12.80
2022-12-04T08:52:28.977Z,12.80
2022-12-04T08:53:28.806Z,12.90
2022-12-04T08:54:34.492Z,12.50
2022-12-04T08:55:28.783Z,13.40
2022-12-04T08:56:28.798Z,14.30
2022-12-04T08:57:28.753Z,13.10
2022-12-04T08:58:28.759Z,13.10
2022-12-04T08:59:28.765Z,13.90
2022-12-04T09:00:28.796Z,12.30
2022-12-04T09:01:28.858Z,13.40
2022-12-04T09:02:28.733Z,12.50
2022-12-04T09:03:31.082Z,13.00
2022-12-04T09:04:28.731Z,12.90
2022-12-04T09:05:28.681Z,13.20
2022-12-04T09:06:28.649Z,12.80
2022-12-04T09:07:28.718Z,12.90
2022-12-04T09:08:28.631Z,13.50
2022-12-04T09:09:28.595Z,13.00
2022-12-04T09:10:28.655Z,12.20
2022-12-04T09:11:28.598Z,13.40
2022-12-04T09:12:28.718Z,12.60
2022-12-04T09:13:28.586Z,12.60
2022-12-04T09:14:28.528Z,12.20
2022-12-04T09:15:28.585Z,12.80
2022-12-04T09:16:28.644Z,12.90
2022-12-04T09:17:28.614Z,12.80
2022-12-04T09:18:28.480Z,12.90
2022-12-04T09:19:28.502Z,12.90
2022-12-04T09:20:28.453Z,12.40
2022-12-04T09:21:28.494Z,12.80
2022-12-04T09:22:45.484Z,12.30
2022-12-04T09:23:28.465Z,13.30
2022-12-04T09:24:28.396Z,13.70
2022-12-04T09:25:28.418Z,12.90
2022-12-04T09:26:28.389Z,13.60
2022-12-04T09:27:28.418Z,13.50
2022-12-04T09:28:28.382Z,12.80
2022-12-04T09:29:28.380Z,13.50
2022-12-04T09:30:28.323Z,12.70
2022-12-04T09:31:28.438Z,12.90
2022-12-04T09:32:28.337Z,12.00
2022-12-04T09:33:28.312Z,11.50
2022-12-04T09:34:28.294Z,12.30
2022-12-04T09:35:28.296Z,12.60
2022-12-04T09:36:28.249Z,13.10
2022-12-04T09:37:28.279Z,13.70
2022-12-04T09:38:28.247Z,11.10
2022-12-04T09:39:28.247Z,11.90
2022-12-04T09:40:35.141Z,11.30
2022-12-04T09:41:28.213Z,11.30
2022-12-04T09:42:28.170Z,11.00
2022-12-04T09:43:28.217Z,11.80
2022-12-04T09:44:28.156Z,11.70
2022-12-04T09:45:28.152Z,10.80
2022-12-04T09:46:28.176Z,11.70
2022-12-04T09:47:28.126Z,11.40
2022-12-04T09:48:28.114Z,12.10
2022-12-04T09:49:28.136Z,10.80
2022-12-04T09:50:28.067Z,10.80
2022-12-04T09:51:28.082Z,11.60
2022-12-04T09:52:28.039Z,11.00
2022-12-04T09:53:28.066Z,11.90
2022-12-04T09:54:28.059Z,10.80
2022-12-04T09:55:28.058Z,10.90
2022-12-04T09:56:27.996Z,10.40
2022-12-04T09:57:28.004Z,11.40
2022-12-04T09:58:27.967Z,10.70
2022-12-04T09:59:27.994Z,11.30
2022-12-04T10:00:28.023Z,11.80
2022-12-04T10:01:27.973Z,11.90
2022-12-04T10:02:28.108Z,11.60
2022-12-04T10:03:28.087Z,11.00
2022-12-04T10:04:27.901Z,11.10
2022-12-04T10:05:27.897Z,10.90
2022-12-04T10:06:27.892Z,11.70
2022-12-04T10:07:27.976Z,11.80
2022-12-04T10:08:27.870Z,11.70
2022-12-04T10:09:27.854Z,10.40
2022-12-04T10:10:27.832Z,11.30
2022-12-04T10:11:32.651Z,11.40
2022-12-04T10:12:27.829Z,11.30
2022-12-04T10:13:27.794Z,12.50
2022-12-04T10:14:27.762Z,11.70
2022-12-04T10:15:27.771Z,11.20
2022-12-04T10:16:27.799Z,11.80
2022-12-04T10:17:32.407Z,10.50
2022-12-04T10:18:27.754Z,10.00
2022-12-04T10:19:27.719Z,11.20
2022-12-04T10:20:27.692Z,10.30
2022-12-04T10:21:27.720Z,10.30
2022-12-04T10:22:27.652Z,10.10
2022-12-04T10:23:27.673Z,10.70
2022-12-04T10:24:27.667Z,10.10
2022-12-04T10:25:27.699Z,9.60
2022-12-04T10:26:27.617Z,10.60
2022-12-04T10:27:27.632Z,10.50
2022-12-04T10:28:27.581Z,10.40
2022-12-04T10:29:27.632Z,9.90
2022-12-04T10:30:27.607Z,10.20
2022-12-04T10:31:27.637Z,10.00
2022-12-04T10:32:27.540Z,10.90
2022-12-04T10:33:27.545Z,10.60
2022-12-04T10:34:27.810Z,9.70
2022-12-04T10:35:27.592Z,10.30
2022-12-04T10:36:27.530Z,10.10
2022-12-04T10:37:27.610Z,10.50
2022-12-04T10:38:27.461Z,9.90
2022-12-04T10:39:27.471Z,11.90
2022-12-04T10:40:27.442Z,9.90
2022-12-04T10:41:27.509Z,9.40
2022-12-04T10:42:27.440Z,9.60
2022-12-04T10:43:27.452Z,9.80
2022-12-04T10:44:27.379Z,10.30
2022-12-04T10:45:27.413Z,11.00
2022-12-04T10:46:27.496Z,9.50
2022-12-04T10:47:27.374Z,10.00
2022-12-04T10:48:27.360Z,9.50
2022-12-04T10:49:27.358Z,9.60
2022-12-04T10:50:27.299Z,10.60
2022-12-04T10:51:27.322Z,11.40
2022-12-04T10:52:27.275Z,10.00
2022-12-04T10:53:27.282Z,10.60
2022-12-04T10:54:27.287Z,10.40
2022-12-04T10:55:27.273Z,9.60
2022-12-04T10:56:27.222Z,10.10
2022-12-04T10:57:27.233Z,10.00
2022-12-04T10:58:27.217Z,10.10
2022-12-04T10:59:27.290Z,9.90
2022-12-04T11:00:27.219Z,10.00
2022-12-04T11:01:27.332Z,9.60
2022-12-04T11:02:27.428Z,11.20
2022-12-04T11:03:27.434Z,9.80
2022-12-04T11:04:27.123Z,11.20
2022-12-04T11:05:27.157Z,10.20
2022-12-04T11:06:27.151Z,10.20
2022-12-04T11:07:27.322Z,9.70
2022-12-04T11:08:27.190Z,10.00
2022-12-04T11:09:27.080Z,9.90
2022-12-04T11:10:27.047Z,10.50
2022-12-04T11:11:27.049Z,10.90
2022-12-04T11:12:27.048Z,9.70
2022-12-04T11:13:27.158Z,9.90
2022-12-04T11:14:27.007Z,9.10
2022-12-04T11:15:27.123Z,9.90
2022-12-04T11:16:27.132Z,9.90
2022-12-04T11:17:26.986Z,9.30
2022-12-04T11:18:27.031Z,9.10
2022-12-04T11:19:26.952Z,9.40
2022-12-04T11:20:26.932Z,10.00
2022-12-04T11:21:26.986Z,9.50
2022-12-04T11:22:26.886Z,9.90
2022-12-04T11:23:26.909Z,8.80
2022-12-04T11:24:26.891Z,9.60
2022-12-04T11:25:26.889Z,9.70
2022-12-04T11:26:26.832Z,9.70
2022-12-04T11:27:26.897Z,9.50
2022-12-04T11:28:41.265Z,9.30
2022-12-04T11:29:26.890Z,9.60
2022-12-04T11:30:26.859Z,9.50
2022-12-04T11:31:26.823Z,9.90
2022-12-04T11:32:26.795Z,9.20
2022-12-04T11:33:26.796Z,9.40
2022-12-04T11:34:26.725Z,9.60
2022-12-04T11:35:26.754Z,10.50
2022-12-04T11:36:26.816Z,9.40
2022-12-04T11:37:26.717Z,9.80
2022-12-04T11:38:26.711Z,10.10
2022-12-04T11:39:26.696Z,10.00
2022-12-04T11:40:26.676Z,9.60
2022-12-04T11:41:26.690Z,9.10
2022-12-04T11:42:26.666Z,9.30
2022-12-04T11:43:26.639Z,10.00
2022-12-04T11:44:26.624Z,9.40
2022-12-04T11:45:26.629Z,9.60
2022-12-04T11:46:26.692Z,9.10
2022-12-04T11:47:26.612Z,9.70
2022-12-04T11:48:26.593Z,9.10
2022-12-04T11:49:26.607Z,9.30
2022-12-04T11:50:26.536Z,9.20
2022-12-04T11:51:26.582Z,9.20
2022-12-04T11:52:26.514Z,9.60
2022-12-04T11:53:26.518Z,9.10
2022-12-04T11:54:26.518Z,9.30
2022-12-04T11:55:29.032Z,9.40
2022-12-04T11:56:26.461Z,9.90
2022-12-04T11:57:26.526Z,9.00
2022-12-04T11:58:26.437Z,10.10
2022-12-04T11:59:26.450Z,9.50
2022-12-04T12:00:26.500Z,9.40
2022-12-04T12:01:26.427Z,9.00
2022-12-04T12:02:26.562Z,8.60
2022-12-04T12:03:26.621Z,9.10
2022-12-04T12:04:26.350Z,9.00
2022-12-04T12:05:26.357Z,9.30
2022-12-04T12:06:26.366Z,9.10
2022-12-04T12:07:26.337Z,9.00
2022-12-04T12:08:26.316Z,9.20
2022-12-04T12:09:26.343Z,9.20
2022-12-04T12:10:26.303Z,8.20
2022-12-04T12:11:26.287Z,8.60
2022-12-04T12:12:26.296Z,8.90
2022-12-04T12:13:26.273Z,9.10
2022-12-04T12:14:26.247Z,8.80
2022-12-04T12:15:26.304Z,8.50
2022-12-04T12:16:26.253Z,9.10
2022-12-04T12:17:26.241Z,9.10
2022-12-04T12:18:26.269Z,8.60
2022-12-04T12:19:26.189Z,9.00
2022-12-04T12:20:26.143Z,8.80
2022-12-04T12:21:26.158Z,9.10
2022-12-04T12:22:26.240Z,9.20
2022-12-04T12:23:26.137Z,8.50
2022-12-04T12:24:26.133Z,8.60
2022-12-04T12:25:26.183Z,8.60
2022-12-04T12:26:26.082Z,8.80
2022-12-04T12:27:26.085Z,8.10
2022-12-04T12:28:26.050Z,8.60
2022-12-04T12:29:26.115Z,8.70
2022-12-04T12:30:26.076Z,8.50
2022-12-04T12:31:26.075Z,9.40
2022-12-04T12:32:25.988Z,9.10
2022-12-04T12:33:26.055Z,8.40
2022-12-04T12:34:25.969Z,9.40
2022-12-04T12:38:26.905Z,9.30
2022-12-04T12:39:27.829Z,9.70
2022-12-04T12:40:27.847Z,9.70
2022-12-04T12:41:27.835Z,9.40
2022-12-04T12:42:27.820Z,8.90
2022-12-04T12:43:27.848Z,8.40
2022-12-04T12:44:27.796Z,8.40
2022-12-04T12:45:27.798Z,9.40
2022-12-04T12:46:27.863Z,8.80
2022-12-04T12:47:27.766Z,8.10
2022-12-04T12:48:27.750Z,9.10
2022-12-04T12:49:27.718Z,9.20
2022-12-04T12:50:27.718Z,9.00
2022-12-04T12:51:29.986Z,8.40
2022-12-04T12:52:27.748Z,9.10
2022-12-04T12:53:27.762Z,9.40
2022-12-04T12:54:27.669Z,9.80
2022-12-04T12:55:27.629Z,9.00
2022-12-04T12:56:27.667Z,8.50
2022-12-04T12:57:27.614Z,8.40
2022-12-04T12:58:27.666Z,9.20
2022-12-04T12:59:27.692Z,9.00
2022-12-04T13:00:27.599Z,9.00